createdAt,value
2023-05-14T00:00:27.142Z,101372.34
2023-05-14T00:02:54.288Z,101376.63
2023-05-14T00:05:20.977Z,101368.78
2023-05-14T00:07:47.629Z,101368.72
2023-05-14T00:10:14.109Z,101372.16
2023-05-14T00:12:40.874Z,101379.13
2023-05-14T00:15:08.092Z,101376.75
2023-05-14T00:17:34.533Z,101367.00
2023-05-14T00:20:01.260Z,101371.19
2023-05-14T00:22:27.655Z,101367.50
2023-05-14T00:24:54.098Z,101365.69
2023-05-14T00:27:20.511Z,101365.00
2023-05-14T00:29:46.929Z,101372.34
2023-05-14T00:32:13.336Z,101374.16
2023-05-14T00:34:39.734Z,101365.97
2023-05-14T00:37:06.222Z,101356.09
2023-05-14T00:39:32.732Z,101363.97
2023-05-14T00:41:59.247Z,101357.25
2023-05-14T00:44:25.766Z,101352.16
2023-05-14T00:46:52.942Z,101348.69
2023-05-14T00:49:19.646Z,101346.06
2023-05-14T00:51:47.093Z,101352.25
2023-05-14T00:54:17.061Z,101343.06
2023-05-14T00:56:45.902Z,101350.19
2023-05-14T00:59:13.228Z,101333.03
2023-05-14T01:01:40.093Z,101339.56
2023-05-14T01:04:07.682Z,101337.28
2023-05-14T01:06:47.435Z,101342.94
2023-05-14T01:09:22.238Z,101339.94
2023-05-14T01:12:03.110Z,101333.16
2023-05-14T01:14:43.258Z,101329.81
2023-05-14T01:17:13.145Z,101324.91
2023-05-14T01:19:44.494Z,101327.94
2023-05-14T01:22:11.750Z,101322.09
2023-05-14T01:24:38.356Z,101325.91
2023-05-14T01:27:13.228Z,101321.63
2023-05-14T01:29:45.244Z,101309.34
2023-05-14T01:32:13.448Z,101311.47
2023-05-14T01:34:40.480Z,101314.09
2023-05-14T01:37:09.400Z,101305.50
2023-05-14T01:39:37.918Z,101299.31
2023-05-14T01:42:05.194Z,101304.44
2023-05-14T01:44:32.658Z,101304.69
2023-05-14T01:46:59.149Z,101308.56
2023-05-14T01:49:25.603Z,101302.72
2023-05-14T01:51:52.034Z,101308.59
2023-05-14T01:54:18.446Z,101307.25
2023-05-14T01:56:44.899Z,101308.16
2023-05-14T01:59:11.362Z,101308.06
2023-05-14T02:01:37.839Z,101297.72
2023-05-14T02:04:04.564Z,101302.13
2023-05-14T02:06:32.175Z,101306.72
2023-05-14T02:08:58.981Z,101303.47
2023-05-14T02:11:26.196Z,101295.75
2023-05-14T02:13:52.624Z,101297.63
2023-05-14T02:16:19.326Z,101304.84
2023-05-14T02:18:45.928Z,101295.56
2023-05-14T02:21:12.424Z,101305.16
2023-05-14T02:23:41.891Z,101299.41
2023-05-14T02:26:10.011Z,101289.88
2023-05-14T02:28:36.513Z,101298.03
2023-05-14T02:31:03.196Z,101299.09
2023-05-14T02:33:29.809Z,101302.97
2023-05-14T02:35:56.363Z,101292.81
2023-05-14T02:38:23.347Z,101286.97
2023-05-14T02:40:49.943Z,101295.00
2023-05-14T02:43:16.368Z,101295.44
2023-05-14T02:45:43.019Z,101296.47
2023-05-14T02:48:09.449Z,101295.72
2023-05-14T02:50:35.871Z,101289.69
2023-05-14T02:53:02.284Z,101296.56
2023-05-14T02:55:28.792Z,101296.47
2023-05-14T02:57:55.268Z,101298.22
2023-05-14T03:00:22.052Z,101297.28
2023-05-14T03:02:49.004Z,101289.59
2023-05-14T03:05:15.817Z,101295.72
2023-05-14T03:07:42.207Z,101295.72
2023-05-14T03:10:09.099Z,101295.63
2023-05-14T03:12:35.669Z,101291.34
2023-05-14T03:15:02.186Z,101291.44
2023-05-14T03:17:28.666Z,101291.44
2023-05-14T03:19:55.093Z,101300.34
2023-05-14T03:22:21.874Z,101290.81
2023-05-14T03:24:48.254Z,101296.16
2023-05-14T03:27:14.701Z,101287.59
2023-05-14T03:29:41.108Z,101297.28
2023-05-14T03:32:07.573Z,101288.81
2023-05-14T03:34:34.164Z,101290.81
2023-05-14T03:37:00.601Z,101288.47
2023-05-14T03:39:26.990Z,101286.09
2023-05-14T03:41:53.572Z,101288.78
2023-05-14T03:44:19.965Z,101295.16
2023-05-14T03:46:46.358Z,101281.25
2023-05-14T03:49:12.853Z,101282.13
2023-05-14T03:51:39.534Z,101284.94
2023-05-14T03:54:06.998Z,101285.97
2023-05-14T03:56:33.462Z,101282.72
2023-05-14T03:58:59.848Z,101283.97
2023-05-14T04:01:26.247Z,101296.38
2023-05-14T04:03:52.793Z,101293.13
2023-05-14T04:06:19.395Z,101291.53
2023-05-14T04:08:45.823Z,101287.56
2023-05-14T04:11:12.263Z,101302.56
2023-05-14T04:13:38.706Z,101289.63
2023-05-14T04:16:05.630Z,101296.53
2023-05-14T04:18:35.276Z,101286.84
2023-05-14T04:21:02.234Z,101273.78
2023-05-14T04:23:29.683Z,101285.81
2023-05-14T04:25:56.120Z,101285.59
2023-05-14T04:28:22.567Z,101282.91
2023-05-14T04:30:49.332Z,101287.06
2023-05-14T04:33:15.732Z,101284.44
2023-05-14T04:35:42.157Z,101287.59
2023-05-14T04:38:09.107Z,101288.34
2023-05-14T04:40:35.671Z,101289.91
2023-05-14T04:43:02.068Z,101284.47
2023-05-14T04:45:28.559Z,101276.47
2023-05-14T04:47:55.095Z,101280.22
2023-05-14T04:50:22.062Z,101277.31
2023-05-14T04:52:48.780Z,101282.44
2023-05-14T04:55:15.283Z,101268.69
2023-05-14T04:57:41.722Z,101275.75
2023-05-14T05:00:09.963Z,101276.72
2023-05-14T05:02:36.457Z,101275.13
2023-05-14T05:05:04.065Z,101281.22
2023-05-14T05:07:30.624Z,101288.34
2023-05-14T05:09:56.993Z,101298.78
2023-05-14T05:12:23.381Z,101292.47
2023-05-14T05:14:49.777Z,101289.72
2023-05-14T05:17:16.154Z,101287.56
2023-05-14T05:19:44.104Z,101290.38
2023-05-14T05:22:10.914Z,101288.47
2023-05-14T05:24:37.559Z,101292.84
2023-05-14T05:27:05.395Z,101288.00
2023-05-14T05:29:32.016Z,101285.44
2023-05-14T05:31:58.985Z,101292.00
2023-05-14T05:34:25.416Z,101287.25
2023-05-14T05:36:51.782Z,101287.00
2023-05-14T05:39:18.219Z,101287.25
2023-05-14T05:41:44.741Z,101283.91
2023-05-14T05:44:11.236Z,101285.19
2023-05-14T05:46:37.797Z,101279.69
2023-05-14T05:49:04.423Z,101280.56
2023-05-14T05:51:31.459Z,101273.56
2023-05-14T05:53:57.895Z,101280.59
2023-05-14T05:56:24.262Z,101273.13
2023-05-14T05:58:50.672Z,101279.44
2023-05-14T06:01:17.061Z,101286.03
2023-05-14T06:03:43.821Z,101288.47
2023-05-14T06:06:11.247Z,101282.09
2023-05-14T06:08:37.680Z,101284.44
2023-05-14T06:11:04.623Z,101280.56
2023-05-14T06:13:31.029Z,101281.56
2023-05-14T06:15:57.489Z,101280.00
2023-05-14T06:18:23.972Z,101281.41
2023-05-14T06:20:50.427Z,101282.25
2023-05-14T06:23:16.868Z,101289.72
2023-05-14T06:25:43.358Z,101292.78
2023-05-14T06:28:09.834Z,101297.19
2023-05-14T06:30:36.234Z,101289.19
2023-05-14T06:33:02.689Z,101296.31
2023-05-14T06:35:29.229Z,101291.69
2023-05-14T06:37:55.798Z,101288.72
2023-05-14T06:40:22.591Z,101293.78
2023-05-14T06:42:49.388Z,101294.72
2023-05-14T06:45:15.862Z,101292.66
2023-05-14T06:47:42.396Z,101294.25
2023-05-14T06:50:10.814Z,101297.47
2023-05-14T06:52:37.727Z,101295.00
2023-05-14T06:55:04.392Z,101302.09
2023-05-14T06:57:30.840Z,101294.94
2023-05-14T06:59:57.479Z,101286.78
2023-05-14T07:02:24.050Z,101289.94
2023-05-14T07:04:50.500Z,101286.16
2023-05-14T07:07:20.544Z,101278.78
2023-05-14T07:09:47.636Z,101285.75
2023-05-14T07:12:14.139Z,101274.41
2023-05-14T07:14:40.552Z,101279.38
2023-05-14T07:17:07.054Z,101279.06
2023-05-14T07:19:33.523Z,101277.78
2023-05-14T07:21:59.940Z,101276.66
2023-05-14T07:24:26.420Z,101282.38
2023-05-14T07:26:54.262Z,101287.72
2023-05-14T07:29:30.317Z,101283.00
2023-05-14T07:31:56.790Z,101286.22
2023-05-14T07:34:23.186Z,101276.31
2023-05-14T07:36:49.684Z,101285.19
2023-05-14T07:39:16.092Z,101298.56
2023-05-14T07:41:42.493Z,101292.28
2023-05-14T07:44:09.079Z,101284.28
2023-05-14T07:46:36.597Z,101300.63
2023-05-14T07:49:03.243Z,101285.91
2023-05-14T07:51:30.342Z,101282.34
2023-05-14T07:53:56.738Z,101288.66
2023-05-14T07:56:23.313Z,101284.94
2023-05-14T07:58:51.011Z,101290.41
2023-05-14T08:01:17.813Z,101289.69
2023-05-14T08:03:44.315Z,101288.13
2023-05-14T08:06:10.848Z,101297.66
2023-05-14T08:08:37.331Z,101288.38
2023-05-14T08:11:04.012Z,101290.56
2023-05-14T08:13:30.503Z,101296.16
2023-05-14T08:15:56.888Z,101291.47
2023-05-14T08:18:23.312Z,101296.31
2023-05-14T08:20:49.706Z,101291.59
2023-05-14T08:23:16.138Z,101291.44
2023-05-14T08:25:42.547Z,101302.63
2023-05-14T08:28:09.052Z,101295.38
2023-05-14T08:30:35.685Z,101289.59
2023-05-14T08:33:02.354Z,101288.94
2023-05-14T08:35:28.918Z,101286.38
2023-05-14T08:37:56.835Z,101283.50
2023-05-14T08:40:23.757Z,101275.66
2023-05-14T08:42:51.474Z,101277.00
2023-05-14T08:45:25.573Z,101281.69
2023-05-14T08:47:52.092Z,101273.00
2023-05-14T08:50:22.575Z,101262.84
2023-05-14T08:52:49.847Z,101276.19
2023-05-14T08:55:16.252Z,101277.19
2023-05-14T08:57:42.713Z,101271.09
2023-05-14T09:00:12.410Z,101269.13
2023-05-14T09:02:44.442Z,101264.22
2023-05-14T09:05:10.996Z,101264.09
2023-05-14T09:07:37.408Z,101263.53
2023-05-14T09:10:04.687Z,101265.84
2023-05-14T09:12:31.352Z,101261.03
2023-05-14T09:14:57.777Z,101270.47
2023-05-14T09:17:27.864Z,101266.03
2023-05-14T09:19:54.591Z,101270.44
2023-05-14T09:22:21.142Z,101268.91
2023-05-14T09:25:02.554Z,101262.81
2023-05-14T09:27:31.769Z,101262.38
2023-05-14T09:30:11.486Z,101251.47
2023-05-14T09:32:40.291Z,101254.44
2023-05-14T09:35:17.068Z,101255.25
2023-05-14T09:37:45.420Z,101251.81
2023-05-14T09:40:13.265Z,101240.00
2023-05-14T09:42:40.804Z,101246.75
2023-05-14T09:45:09.562Z,101252.47
2023-05-14T09:47:37.627Z,101244.19
2023-05-14T09:50:05.688Z,101237.00
2023-05-14T09:52:32.693Z,101246.28
2023-05-14T09:55:00.186Z,101243.25
2023-05-14T09:57:27.233Z,101242.91
2023-05-14T09:59:54.138Z,101238.81
2023-05-14T10:02:36.808Z,101243.31
2023-05-14T10:05:05.896Z,101240.53
2023-05-14T10:07:41.688Z,101238.47
2023-05-14T10:10:13.605Z,101237.25
2023-05-14T10:12:40.739Z,101226.34
2023-05-14T10:15:16.632Z,101233.31
2023-05-14T10:17:55.402Z,101221.81
2023-05-14T10:20:23.421Z,101225.78
2023-05-14T10:22:51.124Z,101215.72
2023-05-14T10:25:18.118Z,101227.09
2023-05-14T10:27:45.152Z,101222.88
2023-05-14T10:30:12.841Z,101213.41
2023-05-14T10:32:41.846Z,101214.13
2023-05-14T10:35:22.777Z,101215.50
2023-05-14T10:37:51.783Z,101206.00
2023-05-14T10:40:19.181Z,101214.25
2023-05-14T10:42:46.618Z,101203.28
2023-05-14T10:45:14.836Z,101192.66
2023-05-14T10:47:48.308Z,101203.06
2023-05-14T10:50:16.076Z,101195.28
2023-05-14T10:52:43.872Z,101191.44
2023-05-14T10:55:14.267Z,101186.41
2023-05-14T10:57:43.463Z,101183.00
2023-05-14T11:00:11.194Z,101182.34
2023-05-14T11:02:40.618Z,101187.22
2023-05-14T11:05:13.799Z,101171.94
2023-05-14T11:07:48.090Z,101176.72
2023-05-14T11:10:19.483Z,101163.19
2023-05-14T11:12:48.005Z,101166.22
2023-05-14T11:15:16.935Z,101163.72
2023-05-14T11:17:44.956Z,101161.13
2023-05-14T11:20:12.319Z,101156.78
2023-05-14T11:22:40.765Z,101154.16
2023-05-14T11:25:08.612Z,101156.66
2023-05-14T11:27:36.689Z,101155.34
2023-05-14T11:30:03.898Z,101145.75
2023-05-14T11:32:33.136Z,101144.22
2023-05-14T11:34:59.574Z,101144.78
2023-05-14T11:37:26.028Z,101131.25
2023-05-14T11:39:54.655Z,101133.94
2023-05-14T11:42:22.406Z,101135.63
2023-05-14T11:44:51.572Z,101127.00
2023-05-14T11:47:19.697Z,101128.88
2023-05-14T11:49:47.031Z,101124.56
2023-05-14T11:52:15.369Z,101115.81
2023-05-14T11:54:43.711Z,101118.75
2023-05-14T11:57:15.503Z,101116.78
2023-05-14T11:59:42.310Z,101118.16
2023-05-14T12:02:11.983Z,101107.47
2023-05-14T12:04:38.803Z,101104.88
2023-05-14T12:07:10.133Z,101114.34
2023-05-14T12:09:39.368Z,101102.03
2023-05-14T12:12:11.319Z,101111.59
2023-05-14T12:14:42.681Z,101115.47
2023-05-14T12:17:15.019Z,101112.09
2023-05-14T12:19:43.123Z,101106.66
2023-05-14T12:22:11.402Z,101110.38
2023-05-14T12:24:39.187Z,101103.88
2023-05-14T12:27:07.306Z,101090.72
2023-05-14T12:29:38.926Z,101100.09
2023-05-14T12:32:09.812Z,101097.09
2023-05-14T12:34:38.012Z,101094.25
2023-05-14T12:37:05.560Z,101086.47
2023-05-14T12:39:33.726Z,101093.81
2023-05-14T12:42:00.422Z,101088.63
2023-05-14T12:44:28.076Z,101081.13
2023-05-14T12:46:54.830Z,101087.53
2023-05-14T12:49:21.243Z,101087.19
2023-05-14T12:51:47.666Z,101076.53
2023-05-14T12:54:15.774Z,101069.69
2023-05-14T12:56:42.383Z,101066.94
2023-05-14T12:59:09.567Z,101067.03
2023-05-14T13:01:36.845Z,101075.53
2023-05-14T13:04:03.741Z,101064.28
2023-05-14T13:06:31.778Z,101058.94
2023-05-14T13:09:00.161Z,101050.53
2023-05-14T13:11:27.216Z,101048.88
2023-05-14T13:13:53.646Z,101052.59
2023-05-14T13:16:20.133Z,101054.22
2023-05-14T13:18:46.656Z,101049.31
2023-05-14T13:21:13.111Z,101042.59
2023-05-14T13:23:39.616Z,101041.16
2023-05-14T13:26:06.199Z,101035.66
2023-05-14T13:28:32.649Z,101031.97
2023-05-14T13:31:10.652Z,101041.63
2023-05-14T13:33:40.085Z,101031.56
2023-05-14T13:36:08.016Z,101038.34
2023-05-14T13:38:34.823Z,101033.41
2023-05-14T13:41:03.991Z,101028.69
2023-05-14T13:43:34.693Z,101013.28
2023-05-14T13:46:02.260Z,101020.03
2023-05-14T13:48:28.984Z,101026.63
2023-05-14T13:50:55.430Z,101008.50
2023-05-14T13:53:23.082Z,101014.47
2023-05-14T13:55:50.555Z,101006.81
2023-05-14T13:58:17.276Z,100998.38
2023-05-14T14:00:43.714Z,100995.72
2023-05-14T14:03:10.146Z,100997.91
2023-05-14T14:05:36.765Z,100999.91
2023-05-14T14:08:13.198Z,100991.84
2023-05-14T14:10:49.000Z,100994.88
2023-05-14T14:13:15.470Z,100999.78
2023-05-14T14:15:42.518Z,100986.78
2023-05-14T14:18:09.000Z,100982.47
2023-05-14T14:20:35.426Z,100985.91
2023-05-14T14:23:01.952Z,100982.31
2023-05-14T14:25:28.360Z,100983.56
2023-05-14T14:27:54.848Z,100972.94
2023-05-14T14:30:21.367Z,100975.63
2023-05-14T14:32:49.230Z,100978.03
2023-05-14T14:35:17.880Z,100972.50
2023-05-14T14:37:48.886Z,100971.66
2023-05-14T14:40:16.538Z,100972.22
2023-05-14T14:42:43.527Z,100972.47
2023-05-14T14:45:10.735Z,100968.38
2023-05-14T14:47:37.605Z,100962.88
2023-05-14T14:50:04.863Z,100961.66
2023-05-14T14:52:31.420Z,100953.22
2023-05-14T14:54:57.966Z,100962.28
2023-05-14T14:57:24.448Z,100960.50
2023-05-14T14:59:50.887Z,100956.66
2023-05-14T15:02:17.475Z,100958.72
2023-05-14T15:04:44.041Z,100958.72
2023-05-14T15:07:11.157Z,100965.88
2023-05-14T15:09:37.674Z,100963.41
2023-05-14T15:12:04.436Z,100962.66
2023-05-14T15:14:30.834Z,100954.84
2023-05-14T15:16:57.250Z,100968.22
2023-05-14T15:19:23.656Z,100961.88
2023-05-14T15:21:50.153Z,100960.25
2023-05-14T15:24:16.585Z,100953.50
2023-05-14T15:26:43.014Z,100955.78
2023-05-14T15:29:09.474Z,100955.38
2023-05-14T15:34:16.259Z,100958.41
2023-05-14T15:36:42.691Z,100946.91
2023-05-14T15:39:10.371Z,100953.88
2023-05-14T15:41:37.082Z,100949.97
2023-05-14T15:44:03.650Z,100953.63
2023-05-14T15:46:30.944Z,100940.91
2023-05-14T15:48:57.897Z,100948.06
2023-05-14T15:51:24.373Z,100948.84
2023-05-14T15:53:52.971Z,100946.38
2023-05-14T15:56:19.657Z,100946.75
2023-05-14T15:58:46.060Z,100946.47
2023-05-14T16:01:12.584Z,100943.75
2023-05-14T16:03:39.065Z,100939.63
2023-05-14T16:06:06.009Z,100944.25
2023-05-14T16:08:36.187Z,100939.06
2023-05-14T16:11:04.516Z,100932.22
2023-05-14T16:13:30.980Z,100936.84
2023-05-14T16:15:59.400Z,100950.16
2023-05-14T16:18:26.315Z,100946.47
2023-05-14T16:20:53.414Z,100950.81
2023-05-14T16:23:19.814Z,100953.22
2023-05-14T16:25:46.329Z,100947.06
2023-05-14T16:28:13.376Z,100946.41
2023-05-14T16:30:39.829Z,100947.13
2023-05-14T16:33:06.489Z,100946.41
2023-05-14T16:35:36.190Z,100939.84
2023-05-14T16:38:02.693Z,100939.81
2023-05-14T16:40:29.087Z,100936.75
2023-05-14T16:42:55.495Z,100935.22
2023-05-14T16:45:22.075Z,100936.88
2023-05-14T16:47:48.706Z,100938.59
2023-05-14T16:50:15.377Z,100934.69
2023-05-14T16:52:41.813Z,100935.13
2023-05-14T16:55:08.744Z,100938.41
2023-05-14T16:57:35.240Z,100939.63
2023-05-14T17:00:04.467Z,100934.94
2023-05-14T17:02:31.142Z,100933.66
2023-05-14T17:04:59.019Z,100939.75
2023-05-14T17:07:25.671Z,100935.75
2023-05-14T17:09:52.143Z,100942.25
2023-05-14T17:12:18.542Z,100938.06
2023-05-14T17:14:45.112Z,100939.06
2023-05-14T17:17:11.540Z,100950.66
2023-05-14T17:19:37.964Z,100941.66
2023-05-14T17:22:05.851Z,100949.19
2023-05-14T17:24:32.313Z,100953.31
2023-05-14T17:26:59.027Z,100950.91
2023-05-14T17:29:25.680Z,100946.78
2023-05-14T17:31:52.270Z,100949.00
2023-05-14T17:34:18.930Z,100952.31
2023-05-14T17:36:45.921Z,100945.06
2023-05-14T17:39:12.451Z,100944.63
2023-05-14T17:41:39.295Z,100952.69
2023-05-14T17:44:05.769Z,100949.38
2023-05-14T17:46:33.566Z,100949.91
2023-05-14T17:49:00.189Z,100957.25
2023-05-14T17:51:26.678Z,100954.13
2023-05-14T17:53:53.277Z,100956.56
2023-05-14T17:56:19.823Z,100960.78
2023-05-14T17:58:46.524Z,100956.56
2023-05-14T18:01:13.018Z,100955.84
2023-05-14T18:03:39.480Z,100954.91
2023-05-14T18:06:06.184Z,100951.50
2023-05-14T18:08:32.604Z,100951.88
2023-05-14T18:11:00.704Z,100958.34
2023-05-14T18:13:27.361Z,100960.38
2023-05-14T18:15:54.347Z,100961.63
2023-05-14T18:18:21.735Z,100959.88
2023-05-14T18:20:49.316Z,100958.38
2023-05-14T18:23:15.929Z,100965.59
2023-05-14T18:25:42.539Z,100967.75
2023-05-14T18:28:09.498Z,100969.72
2023-05-14T18:30:36.101Z,100975.41
2023-05-14T18:33:02.632Z,100966.31
2023-05-14T18:35:29.128Z,100968.34
2023-05-14T18:37:55.608Z,100976.44
2023-05-14T18:40:22.206Z,100977.16
2023-05-14T18:42:48.660Z,100976.03
2023-05-14T18:45:15.195Z,100972.09
2023-05-14T18:47:41.728Z,100970.13
2023-05-14T18:50:08.616Z,100977.44
2023-05-14T18:52:35.304Z,100974.47
2023-05-14T18:55:01.785Z,100979.28
2023-05-14T18:57:29.361Z,100975.50
2023-05-14T18:59:55.850Z,100975.03
2023-05-14T19:02:24.477Z,100969.59
2023-05-14T19:04:52.205Z,100975.41
2023-05-14T19:07:20.111Z,100982.22
2023-05-14T19:09:46.521Z,100974.13
2023-05-14T19:12:13.341Z,100976.47
2023-05-14T19:14:39.747Z,100976.31
2023-05-14T19:17:06.282Z,100971.69
2023-05-14T19:19:32.743Z,100982.94
2023-05-14T19:21:59.223Z,100983.97
2023-05-14T19:24:25.868Z,100988.47
2023-05-14T19:26:52.521Z,100997.56
2023-05-14T19:29:19.102Z,100991.13
2023-05-14T19:31:45.555Z,100988.97
2023-05-14T19:34:12.027Z,100999.56
2023-05-14T19:36:38.518Z,100995.09
2023-05-14T19:39:05.165Z,101001.38
2023-05-14T19:41:31.625Z,100997.22
2023-05-14T19:43:58.088Z,101004.00
2023-05-14T19:46:24.612Z,101000.72
2023-05-14T19:48:51.082Z,101006.16
2023-05-14T19:51:17.522Z,101002.72
2023-05-14T19:53:44.052Z,101007.34
2023-05-14T19:56:10.855Z,101003.84
2023-05-14T19:58:37.325Z,101001.72
2023-05-14T20:01:04.345Z,101003.53
2023-05-14T20:03:30.957Z,101007.84
2023-05-14T20:05:57.940Z,101001.06
2023-05-14T20:08:24.881Z,101006.84
2023-05-14T20:10:51.421Z,101008.50
2023-05-14T20:13:17.863Z,101003.53
2023-05-14T20:15:44.339Z,101001.06
2023-05-14T20:18:10.762Z,100995.91
2023-05-14T20:20:37.370Z,100999.56
2023-05-14T20:23:03.897Z,101002.53
2023-05-14T20:25:32.880Z,100996.56
2023-05-14T20:28:02.458Z,101000.56
2023-05-14T20:30:28.938Z,100993.09
2023-05-14T20:32:55.803Z,100993.72
2023-05-14T20:35:22.250Z,100987.94
2023-05-14T20:37:49.479Z,100994.38
2023-05-14T20:40:15.981Z,100992.06
2023-05-14T20:42:42.509Z,100991.41
2023-05-14T20:45:09.464Z,100992.22
2023-05-14T20:47:36.254Z,100987.41
2023-05-14T20:50:02.873Z,100990.88
2023-05-14T20:52:29.312Z,100990.34
2023-05-14T20:54:55.734Z,100987.22
2023-05-14T20:57:22.618Z,100987.53
2023-05-14T20:59:49.090Z,100997.25
2023-05-14T21:02:15.932Z,100984.91
2023-05-14T21:04:42.818Z,100982.25
2023-05-14T21:07:09.340Z,100985.88
2023-05-14T21:09:35.757Z,100990.66
2023-05-14T21:12:02.142Z,100992.66
2023-05-14T21:14:28.563Z,100992.13
2023-05-14T21:16:55.083Z,100982.84
2023-05-14T21:19:22.838Z,100988.94
2023-05-14T21:21:49.404Z,100994.34
2023-05-14T21:24:16.778Z,100992.03
2023-05-14T21:26:43.307Z,100999.13
2023-05-14T21:29:09.769Z,100989.41
2023-05-14T21:31:36.235Z,100987.41
2023-05-14T21:34:02.832Z,100985.63
2023-05-14T21:36:29.302Z,100980.47
2023-05-14T21:38:55.781Z,100975.53
2023-05-14T21:41:22.214Z,100979.44
2023-05-14T21:43:48.600Z,100975.78
2023-05-14T21:46:15.158Z,100973.09
2023-05-14T21:48:41.783Z,100970.63
2023-05-14T21:51:08.303Z,100979.56
2023-05-14T21:53:34.862Z,100971.91
2023-05-14T21:56:01.289Z,100974.72
2023-05-14T21:58:28.043Z,100975.00
2023-05-14T22:00:54.535Z,100977.59
2023-05-14T22:03:21.030Z,100981.53
2023-05-14T22:05:47.738Z,100976.59
2023-05-14T22:08:14.154Z,100980.50
2023-05-14T22:10:40.851Z,100979.19
2023-05-14T22:13:07.310Z,100979.63
2023-05-14T22:15:34.430Z,100976.63
2023-05-14T22:18:00.978Z,100970.97
2023-05-14T22:20:27.431Z,100968.78
2023-05-14T22:22:53.974Z,100974.38
2023-05-14T22:25:20.407Z,100968.59
2023-05-14T22:27:46.843Z,100975.31
2023-05-14T22:30:13.406Z,100965.59
2023-05-14T22:32:39.876Z,100972.16
2023-05-14T22:35:06.511Z,100967.19
2023-05-14T22:37:32.973Z,100965.81
2023-05-14T22:39:59.419Z,100965.28
2023-05-14T22:42:27.214Z,100962.97
2023-05-14T22:44:53.718Z,100952.22
2023-05-14T22:47:20.225Z,100949.34
2023-05-14T22:49:46.924Z,100947.16
2023-05-14T22:52:13.385Z,100945.88
2023-05-14T22:54:39.839Z,100948.66
2023-05-14T22:57:06.693Z,100945.66
2023-05-14T22:59:33.254Z,100935.94
2023-05-14T23:02:01.260Z,100945.97
2023-05-14T23:04:27.738Z,100945.16
2023-05-14T23:06:54.177Z,100942.66
2023-05-14T23:09:20.760Z,100936.84
2023-05-14T23:11:47.344Z,100948.34
2023-05-14T23:14:13.766Z,100941.41
2023-05-14T23:16:40.196Z,100943.38
2023-05-14T23:19:06.796Z,100938.25
2023-05-14T23:21:33.430Z,100936.06
2023-05-14T23:23:59.829Z,100929.28
2023-05-14T23:26:26.252Z,100928.22
2023-05-14T23:28:52.703Z,100927.56
2023-05-14T23:31:19.146Z,100929.81
2023-05-14T23:33:46.324Z,100931.06
2023-05-14T23:36:12.877Z,100918.22
2023-05-14T23:38:39.930Z,100928.22
2023-05-14T23:41:06.346Z,100930.19
2023-05-14T23:43:33.745Z,100932.09
2023-05-14T23:46:00.642Z,100930.09
2023-05-14T23:48:27.161Z,100930.53
2023-05-14T23:50:53.683Z,100938.72
2023-05-14T23:53:20.355Z,100936.38
2023-05-14T23:55:47.085Z,100923.22
2023-05-14T23:58:13.617Z,100937.63
